Date,TemperatureHighF,TemperatureAvgF,TemperatureLowF,DewpointHighF,DewpointAvgF,DewpointLowF,HumidityHigh,HumidityAvg,HumidityLow,PressureMaxIn,PressureMinIn,WindSpeedMaxMPH,WindSpeedAvgMPH,GustSpeedMaxMPH,PrecipitationSumIn
2013-1-1,33.8,25.6,14.7,27.0,16.7,8.8,81,69,55,30.06,29.88,5,2,14,0.00
2013-1-2,28.8,24.7,18.6,19.8,16.8,12.6,77,72,66,30.21,30.08,6,3,17,0.00
2013-1-3,24.7,22.0,17.7,20.0,17.1,12.3,84,81,78,30.20,30.10,4,1,9,0.00
2013-1-4,33.4,33.0,32.7,26.5,25.8,25.3,76,74,73,30.01,29.93,13,10,29,0.00
2013-1-5,36.0,32.5,30.2,28.7,25.6,22.9,81,76,70,30.30,30.05,8,3,18,0.03
2013-1-6,36.6,35.2,33.0,33.1,31.2,25.0,88,85,72,30.10,29.89,6,4,19,0.37
2013-1-7,35.2,30.7,26.4,31.4,24.2,20.8,86,77,70,30.40,30.11,6,3,17,0.01
2013-1-8,38.1,32.2,24.0,30.8,25.5,20.7,87,76,70,30.31,30.17,6,2,16,0.05
2013-1-9,45.2,36.1,21.7,36.4,29.6,18.4,91,78,60,30.38,29.99,12,5,45,0.08
2013-1-10,42.9,37.2,32.7,29.5,28.0,26.5,81,69,57,30.60,30.38,4,1,11,0.00
2013-1-11,50.8,44.5,36.1,46.2,37.3,26.4,86,76,60,30.37,29.84,6,2,15,0.15
2013-1-12,60.2,52.6,46.1,50.7,47.2,42.7,90,82,70,29.98,29.92,11,3,21,0.46
2013-1-13,65.4,53.6,46.3,56.3,49.3,43.8,91,86,72,29.92,29.72,9,3,21,0.55
2013-1-14,46.4,34.4,28.8,43.9,27.0,19.5,92,74,62,30.40,29.74,8,4,19,0.09
2013-1-15,33.8,29.5,27.8,22.5,21.1,19.5,78,71,60,30.42,30.16,4,1,11,0.00
2013-1-16,38.8,33.8,29.4,30.1,25.8,21.1,77,72,62,30.16,29.79,9,3,27,0.00
2013-1-17,36.0,27.1,17.4,29.8,20.0,12.8,84,74,68,30.18,29.87,9,3,21,0.00
2013-1-18,33.2,22.7,15.7,19.8,13.7,9.0,85,69,57,30.46,30.04,8,4,19,0.00
2013-1-19,49.0,42.4,33.5,31.7,27.2,19.5,65,55,44,30.04,29.57,10,6,27,0.01
2013-1-20,49.0,31.3,19.6,35.0,18.8,9.9,75,60,46,30.10,29.47,15,8,40,0.00
2013-1-21,19.5,17.6,12.8,9.6,7.2,0.6,70,64,57,30.08,29.95,6,3,16,0.00
2013-1-22,13.8,10.1,7.0,0.9,-2.1,-3.9,68,57,51,30.23,29.94,9,5,22,0.00
2013-1-23,17.4,12.4,7.3,8.3,1.3,-2.6,73,61,46,30.25,30.13,4,2,13,0.00
2013-1-24,17.6,12.6,6.3,12.2,5.4,-0.4,84,73,60,30.56,30.11,6,1,14,0.00
2013-1-25,19.5,12.9,5.6,10.6,6.1,-0.5,85,74,59,30.53,30.10,3,0,8,0.00
2013-1-26,28.3,19.2,9.5,16.3,12.0,4.9,84,74,57,30.42,30.11,2,0,7,0.04
2013-1-27,31.2,22.6,11.0,19.6,15.5,6.6,88,75,57,30.57,30.35,3,1,11,0.00
2013-1-28,44.1,36.4,26.2,41.9,32.7,17.1,92,86,68,30.33,29.84,8,3,18,0.53
2013-1-29,56.5,44.6,36.1,53.4,42.2,33.5,96,91,89,30.04,29.69,5,2,15,0.55
2013-1-30,66.1,59.8,50.2,55.7,51.7,45.0,90,75,62,29.68,29.17,11,6,29,0.19
2013-1-31,30.1,26.5,23.1,18.8,14.8,12.1,72,61,50,29.73,29.43,15,9,31,0.17
2013-2-1,24.6,21.2,19.0,16.5,13.1,10.0,81,71,57,30.20,29.73,8,5,20,0.00
2013-2-2,21.5,18.8,14.8,16.1,13.2,8.3,85,79,67,30.20,29.98,6,3,17,0.00
2013-2-3,28.1,18.6,7.9,18.3,12.5,3.7,88,77,56,29.99,29.81,5,1,16,0.09
2013-2-4,22.2,19.2,15.0,14.7,11.5,8.0,80,72,60,30.00,29.89,7,3,19,0.00
2013-2-5,29.9,23.6,16.4,23.2,16.2,11.7,85,73,57,29.96,29.84,5,1,17,0.02
2013-2-6,29.4,26.0,19.7,24.2,17.3,12.8,83,70,54,30.36,29.88,7,3,18,0.00
2013-2-7,33.8,26.5,17.7,22.3,17.7,12.6,81,69,57,30.38,30.05,5,2,16,0.01
2013-2-8,34.4,28.3,18.6,31.5,23.8,14.6,89,83,73,30.14,29.75,6,2,16,0.08
2013-2-9,22.6,18.1,9.9,17.3,13.7,6.0,86,83,78,30.43,30.14,3,1,9,0.00
2013-2-10,40.5,25.0,6.9,29.9,17.8,2.6,86,75,56,30.42,29.92,4,1,12,0.18
2013-2-11,50.8,39.5,33.4,41.6,32.3,25.5,92,76,55,29.92,29.55,14,6,33,0.58
2013-2-12,34.4,33.3,31.8,30.1,27.1,23.7,89,78,71,29.98,29.74,10,6,24,0.03
2013-2-13,40.0,32.0,21.9,26.0,23.4,18.2,86,71,54,29.91,29.73,4,1,11,0.00
2013-2-14,41.0,33.7,21.1,34.5,27.7,17.5,89,79,59,29.90,29.76,8,3,25,0.18
2013-2-15,38.3,32.5,23.0,32.0,23.9,14.9,81,70,60,30.08,29.77,10,6,27,0.00
2013-2-16,31.6,25.7,19.9,20.4,15.4,9.5,80,65,49,30.07,29.91,4,1,11,0.00
2013-2-17,22.3,17.8,14.2,17.9,10.1,4.9,84,72,58,30.24,29.91,6,3,19,0.00
2013-2-18,35.9,24.6,9.9,22.3,12.5,5.0,83,61,38,30.29,29.86,4,1,11,0.00
2013-2-19,43.5,34.7,24.7,37.2,27.1,18.5,88,74,58,29.86,29.53,12,6,28,0.41
2013-2-20,25.1,22.3,20.5,19.2,13.8,10.9,80,69,58,30.12,29.76,10,7,26,0.00
2013-2-21,22.9,22.3,21.1,16.2,15.4,12.8,76,75,70,30.41,30.10,6,1,16,0.00
2013-2-22,36.0,30.1,22.1,30.6,23.4,15.8,85,76,59,30.40,29.98,5,2,14,0.05
2013-2-23,39.9,34.6,31.5,31.7,28.4,24.6,81,78,71,29.98,29.87,5,3,15,0.00
2013-2-24,33.3,31.5,29.6,26.8,25.0,22.6,84,77,70,30.09,29.85,6,3,14,0.02
2013-2-25,36.6,31.6,23.5,29.0,25.5,19.7,87,78,69,30.23,30.09,4,1,9,0.00
2013-2-26,45.0,35.6,24.5,33.2,26.7,21.5,89,71,49,30.22,29.69,7,3,25,0.93
2013-2-27,37.1,35.5,34.1,34.4,32.5,31.5,91,89,85,29.70,29.56,7,2,21,0.55
2013-2-28,36.1,34.4,32.8,32.7,31.6,29.9,91,89,85,29.76,29.53,4,2,13,0.29
2013-3-1,32.7,29.5,26.3,29.8,24.0,20.4,89,80,74,29.97,29.76,6,3,15,0.02
2013-3-2,27.1,24.8,22.3,20.7,18.9,17.1,81,78,74,29.98,29.91,5,2,12,0.00
2013-3-3,24.8,23.8,22.2,21.4,18.8,17.3,88,81,79,29.95,29.94,4,3,10,0.00
2013-3-4,32.7,26.5,19.2,23.7,19.3,14.0,82,74,60,30.08,29.95,7,4,17,0.00
2013-3-5,37.2,29.0,21.3,24.2,21.1,16.7,82,73,57,30.11,29.94,7,2,17,0.02
2013-3-6,43.4,34.1,25.9,31.7,27.2,21.0,83,76,59,30.15,29.93,6,3,17,0.00
2013-3-7,41.3,35.6,30.1,32.5,30.1,26.1,88,80,64,30.28,30.14,3,1,11,0.01
2013-3-8,43.7,35.8,27.8,30.3,26.9,23.0,90,72,47,30.41,30.27,6,2,15,0.04
2013-3-9,50.0,36.8,23.0,32.9,27.7,20.0,90,72,48,30.43,30.17,3,1,10,0.01
2013-3-10,68.6,53.9,37.1,37.4,30.2,25.7,66,42,29,30.17,29.92,7,3,20,0.00
2013-3-11,66.7,56.6,47.7,44.0,33.4,30.5,87,43,31,29.92,29.60,9,4,21,0.15
2013-3-12,47.4,37.7,34.4,43.4,32.7,29.2,89,82,73,29.91,29.67,8,5,25,0.10
2013-3-13,36.1,32.4,24.3,29.9,25.7,15.8,86,76,59,30.00,29.84,10,5,23,0.04
2013-3-14,36.2,28.4,22.9,17.0,13.9,8.1,70,56,33,30.11,30.00,8,5,24,0.03
2013-3-15,33.9,30.1,27.4,29.1,23.3,16.8,85,76,63,30.07,29.83,7,3,22,0.00
2013-3-17,23.4,22.7,22.2,10.7,10.5,10.2,60,59,57,30.33,30.33,0,0,3,0.00
2013-3-18,37.0,29.3,21.2,31.5,19.4,8.8,85,67,46,30.33,29.66,6,3,18,0.04
2013-3-19,37.7,32.3,26.0,33.9,26.0,18.2,89,78,66,29.85,29.64,11,6,26,0.21
2013-3-20,35.2,28.6,24.3,22.4,19.9,15.9,84,70,54,29.85,29.81,9,4,23,0.07
2013-3-21,30.0,26.2,21.0,25.7,18.9,13.2,84,74,55,29.84,29.73,7,4,20,0.00
2013-3-22,32.5,29.3,26.1,26.7,24.2,20.3,85,81,75,29.97,29.77,7,4,20,0.03
2013-3-23,41.7,34.0,28.7,27.9,24.4,21.0,80,68,48,30.04,29.94,5,2,14,0.02
2013-3-24,40.9,33.1,21.9,27.9,23.2,17.8,96,68,50,30.04,29.70,7,2,18,0.00
2013-3-25,42.0,36.8,32.5,30.6,26.4,23.9,78,66,54,29.75,29.60,6,3,16,0.00
2013-3-26,47.0,38.4,32.3,34.6,30.4,27.0,84,73,57,29.97,29.75,6,2,16,0.00
2013-3-27,41.7,34.8,31.7,32.9,30.3,26.5,90,84,70,30.08,29.95,6,2,17,0.12
2013-3-28,34.2,33.9,33.7,31.6,31.3,30.9,90,90,89,30.08,30.07,2,1,5,0.00
2013-3-30,51.6,43.4,36.1,26.0,24.1,22.8,60,47,36,30.12,30.02,5,1,13,0.00
2013-3-31,60.4,46.0,36.3,42.5,32.0,24.0,89,60,35,30.02,29.59,8,2,22,0.09
2013-4-1,46.5,36.2,28.5,41.1,25.6,15.8,89,67,43,29.98,29.56,11,5,24,0.03
2013-4-2,34.2,29.7,24.8,25.0,18.4,15.4,75,63,50,30.14,29.98,10,5,25,0.00
2013-4-3,39.3,31.3,26.9,24.4,18.3,14.7,72,59,38,30.41,30.14,7,3,18,0.00
2013-4-4,50.8,35.9,23.6,22.2,18.6,15.4,80,52,27,30.36,29.93,5,2,15,0.00
2013-4-5,45.0,37.7,28.3,28.9,22.3,14.9,70,54,44,30.17,29.88,7,2,17,0.00
2013-4-6,52.7,38.5,19.7,26.7,19.0,14.0,86,49,24,30.31,30.00,5,1,13,0.00
2013-4-7,64.0,53.6,43.8,44.7,34.3,20.8,73,50,31,30.02,29.69,12,6,28,0.00
2013-4-8,64.6,48.0,31.4,46.3,36.1,27.0,89,65,42,30.09,29.78,4,2,14,0.06
2013-4-9,49.4,48.4,47.8,46.9,45.8,44.7,91,91,89,29.94,29.89,5,2,15,1.16
2013-4-10,49.2,44.7,40.4,46.7,42.1,37.4,95,91,89,30.01,29.83,7,3,21,0.79
2013-4-11,40.4,36.2,33.7,37.0,32.3,29.7,89,86,75,30.09,29.88,7,5,24,0.62
2013-4-12,52.8,39.7,34.7,50.8,36.7,31.5,93,89,82,29.87,29.47,10,5,26,0.71
2013-4-13,43.5,40.4,38.2,36.2,34.6,32.7,86,80,68,29.94,29.77,11,6,28,0.00
2013-4-14,49.7,41.9,36.0,33.9,30.0,27.1,84,63,46,30.16,29.94,6,3,17,0.00
2013-4-15,73.8,57.7,39.1,48.7,41.2,29.2,72,56,40,30.13,29.95,8,3,21,0.00
2013-4-16,64.4,56.6,45.6,56.3,49.4,43.1,92,78,57,30.21,29.92,10,5,26,0.26
2013-4-17,58.6,47.7,34.9,43.4,35.5,31.6,91,65,44,30.34,30.16,5,2,21,0.00
2013-4-18,81.9,58.5,47.5,61.2,44.5,33.0,68,60,47,30.17,29.76,11,4,25,0.00
2013-4-20,40.2,36.9,31.6,28.5,23.7,21.3,75,59,49,30.41,30.00,11,5,23,0.02
2013-4-21,47.7,36.4,23.5,28.6,23.6,18.2,86,61,44,30.67,30.42,5,1,15,0.00
2013-4-23,69.4,63.4,55.3,38.9,37.3,35.5,48,38,31,30.01,29.88,2,1,6,0.00
2013-4-24,63.9,53.6,38.0,55.1,43.1,32.9,90,70,39,30.03,29.59,8,4,20,0.57
2013-4-25,55.8,44.4,37.3,39.5,34.6,28.9,88,71,39,30.31,30.03,8,3,19,0.03
2013-4-26,56.0,45.4,32.5,39.9,31.2,20.3,92,61,27,30.48,30.31,5,1,14,0.01
2013-4-27,72.4,54.9,34.7,42.0,33.0,24.2,74,46,25,30.42,30.17,4,1,9,0.00
2013-4-28,74.4,59.9,48.8,49.9,42.0,34.7,74,54,29,30.17,29.95,8,3,20,0.07
2013-4-29,65.6,58.9,52.3,53.8,49.8,45.6,83,72,65,30.00,29.91,6,2,19,0.05
2013-4-30,75.9,65.2,57.1,58.2,52.8,49.5,84,65,47,30.16,30.00,6,2,15,0.00
2013-5-1,74.1,62.4,57.6,55.9,50.5,48.4,74,66,52,30.28,30.16,4,2,12,0.00
2013-5-2,81.6,72.8,63.3,48.3,41.5,33.7,44,33,18,30.36,30.19,4,2,14,0.00
2013-5-3,80.6,66.5,53.2,48.3,42.5,38.0,59,43,30,30.23,30.12,4,1,13,0.00
2013-5-4,73.3,59.7,49.5,43.8,40.4,36.1,71,51,28,30.23,30.12,3,1,11,0.00
2013-5-5,78.5,64.5,46.2,49.1,44.3,40.3,82,52,28,30.17,30.01,5,2,16,0.00
2013-5-7,79.7,71.5,64.4,54.9,52.4,49.7,62,52,36,29.99,29.95,5,2,16,0.00
2013-5-8,70.3,62.5,55.7,60.5,54.0,48.5,90,74,60,29.99,29.90,2,0,9,0.13
2013-5-9,64.2,58.5,52.1,58.5,54.7,48.2,94,87,71,29.94,29.85,4,1,10,0.28
2013-5-10,76.9,59.7,47.3,61.8,54.3,44.8,93,83,57,29.93,29.69,6,2,19,0.46
2013-5-11,60.3,50.3,47.1,57.6,46.4,42.6,92,87,76,29.77,29.65,7,4,19,0.13
2013-5-12,51.4,43.7,38.7,46.9,36.3,30.3,88,75,58,29.96,29.69,11,5,26,0.22
2013-5-13,47.3,41.4,35.1,36.5,32.7,29.6,81,71,62,30.15,29.95,7,4,20,0.00
2013-5-14,58.9,48.7,34.5,40.3,34.2,30.1,88,60,36,30.16,29.90,4,2,12,0.00
2013-5-15,77.0,61.8,51.5,58.2,48.2,40.6,74,62,41,29.90,29.53,11,3,26,0.00
2013-5-16,74.1,62.8,50.1,52.7,46.6,33.1,86,58,27,30.00,29.71,6,2,17,0.00
2013-5-17,67.4,55.8,40.8,46.9,41.2,36.7,89,60,42,30.19,29.99,3,1,14,0.00
2013-5-18,74.6,63.5,55.0,49.9,44.1,38.6,58,50,38,30.21,30.08,5,2,14,0.00
2013-5-19,85.2,70.6,54.2,63.6,57.1,46.4,89,64,45,30.09,29.92,4,1,10,0.00
2013-5-20,88.4,76.1,63.2,67.3,62.9,57.8,85,65,44,29.99,29.80,6,1,18,0.00
2013-5-21,87.9,75.0,65.6,69.3,63.5,57.6,84,69,51,29.90,29.70,5,2,17,0.01
2013-5-22,87.1,74.4,63.4,66.6,63.1,59.2,91,70,46,29.75,29.60,6,2,17,0.14
2013-5-23,71.7,63.1,45.3,62.8,57.2,42.2,92,81,67,29.90,29.65,6,3,21,0.43
2013-5-24,52.1,44.4,39.8,42.1,36.7,35.0,90,75,55,30.24,29.91,5,3,16,0.12
2013-5-25,59.5,50.6,39.9,38.7,36.1,33.8,86,59,42,30.26,30.18,6,3,17,0.00
2013-5-26,64.8,53.6,44.0,45.1,38.2,32.0,87,58,30,30.23,30.16,6,2,17,0.00
2013-5-27,73.4,58.1,38.2,46.3,39.3,32.7,96,56,26,30.27,30.10,3,1,10,0.00
2013-5-28,65.4,59.7,53.1,62.3,53.4,39.9,93,81,51,30.13,29.88,4,1,15,1.75
2013-5-29,78.7,69.5,64.1,63.9,61.5,58.7,93,77,58,29.99,29.85,7,3,18,0.41
2013-5-30,84.2,73.4,60.3,67.4,62.5,56.5,91,70,56,30.09,29.99,5,2,16,0.00
2013-5-31,87.8,76.4,62.6,67.5,63.6,59.3,91,67,45,30.03,29.89,6,2,19,0.01
2013-6-1,86.1,73.8,65.8,70.3,65.7,62.0,92,77,54,29.92,29.72,7,3,25,0.63
2013-6-2,73.2,67.5,57.7,65.5,60.9,49.8,93,80,62,29.87,29.65,9,4,26,1.43
2013-6-3,61.9,55.6,48.1,49.9,45.8,40.9,86,70,58,30.03,29.88,6,2,19,0.00
2013-6-4,69.2,57.7,44.4,48.2,42.5,36.7,87,59,31,30.16,30.03,3,1,14,0.00
2013-6-5,70.7,59.2,47.8,51.4,45.4,39.0,89,63,42,30.19,30.04,6,2,18,0.00
2013-6-6,60.1,57.5,54.3,57.8,51.6,40.3,92,82,52,30.03,29.79,5,2,18,1.85
2013-6-7,61.8,58.6,55.7,56.2,55.3,53.4,92,89,79,29.84,29.79,2,1,9,0.01
2013-6-8,63.3,59.1,56.8,57.7,55.5,53.0,93,88,78,30.07,29.81,5,1,12,0.05
2013-6-9,78.5,66.0,50.2,60.2,54.6,47.4,92,69,44,30.18,30.06,3,1,10,0.00
2013-6-10,75.9,68.3,64.1,66.1,62.1,56.3,89,81,69,30.06,29.67,5,1,14,0.15
2013-6-11,72.7,65.4,60.4,62.6,60.2,58.1,93,84,64,29.83,29.63,5,2,21,0.23
2013-6-12,80.4,69.2,54.4,60.1,55.5,51.2,93,64,43,29.90,29.72,3,1,9,0.00
2013-6-13,70.0,62.9,58.3,61.7,58.1,54.8,92,85,66,29.77,29.46,5,2,18,0.92
2013-6-14,73.6,63.0,54.1,60.8,56.6,51.3,93,81,58,29.98,29.76,5,1,12,0.00
2013-6-15,71.5,63.0,50.8,56.9,51.8,47.3,93,69,44,30.05,29.92,5,2,14,0.01
2013-6-16,72.6,66.1,61.5,65.2,59.7,53.9,91,80,70,29.93,29.69,6,3,18,0.28
2013-6-17,75.8,68.7,62.1,64.2,59.5,55.4,91,73,52,29.90,29.79,6,2,16,0.17
2013-6-18,70.2,63.9,55.6,57.8,52.6,47.3,88,68,45,30.00,29.85,5,2,15,0.00
2013-6-19,70.4,61.2,50.9,49.9,45.9,39.8,90,60,36,30.17,30.00,4,1,14,0.00
2013-6-20,80.7,65.1,45.7,52.3,47.2,41.3,90,56,25,30.23,30.16,4,1,13,0.00
2013-6-21,85.3,69.6,51.4,57.4,50.9,45.5,88,55,32,30.24,30.13,3,1,10,0.00
2013-6-22,86.7,75.8,63.1,68.4,62.7,55.1,78,65,50,30.13,29.96,6,2,20,0.00
2013-6-23,87.3,77.6,68.8,70.4,67.0,65.1,90,71,51,30.03,29.95,6,2,17,0.34
2013-6-24,82.6,77.3,72.3,68.5,65.7,62.3,78,68,58,30.02,29.90,7,3,23,0.00
2013-6-25,77.2,73.8,70.4,68.1,65.9,63.4,86,76,69,29.91,29.76,7,3,19,0.13
2013-6-26,79.2,72.9,68.5,68.8,65.6,63.7,88,78,63,29.82,29.75,6,3,17,0.00
2013-6-27,80.8,71.3,64.8,69.7,65.7,61.5,91,83,65,29.77,29.60,2,0,9,0.07
2013-6-28,73.4,66.6,63.4,66.6,63.6,61.0,93,90,76,29.60,29.46,4,0,13,1.17
2013-6-29,76.9,67.7,62.0,65.5,61.7,58.1,93,82,64,29.67,29.45,4,1,12,0.13
2013-6-30,78.8,69.6,59.5,65.9,61.2,56.9,93,75,60,29.88,29.67,3,1,12,0.00
2013-7-1,70.8,65.7,60.5,62.1,60.7,57.6,90,84,73,30.03,29.88,5,2,18,0.15
2013-7-2,78.3,67.8,59.2,68.1,62.2,56.6,91,83,67,30.05,29.98,4,1,15,0.00
2013-7-3,90.5,77.2,64.8,72.0,68.1,62.1,93,76,51,30.10,30.03,3,1,10,0.18
2013-7-4,85.2,75.8,70.2,71.6,69.0,67.1,92,81,58,30.15,30.07,4,1,11,0.06
2013-7-5,83.4,75.4,71.0,72.3,68.7,65.9,90,80,64,30.09,30.03,5,2,14,0.01
2013-7-6,86.4,76.0,67.4,71.1,67.9,64.1,92,77,57,30.11,29.98,4,1,10,0.00
2013-7-7,81.6,75.3,71.9,70.2,68.1,66.4,92,79,63,30.01,29.91,6,3,19,0.06
2013-7-8,82.3,74.8,70.9,70.6,68.0,66.3,90,80,59,30.02,29.94,5,2,16,0.00
2013-7-9,82.8,75.0,70.2,72.5,69.3,67.4,92,83,67,30.01,29.86,4,1,10,0.15
2013-7-10,82.7,75.9,70.6,74.8,69.7,61.7,92,81,71,29.86,29.67,7,4,25,0.00
2013-7-11,77.8,70.3,63.0,62.3,58.4,55.5,85,66,49,29.99,29.81,3,2,13,0.00
2013-7-12,75.9,68.1,59.3,64.9,61.0,56.5,92,79,65,30.15,29.99,3,1,10,0.00
2013-7-13,85.5,73.3,60.0,69.5,64.3,56.3,91,75,54,30.20,30.13,5,1,13,0.00
2013-7-14,93.0,80.3,66.6,73.3,68.9,63.8,92,70,47,30.26,30.19,3,1,8,0.00
2013-7-15,91.1,81.1,73.3,74.0,70.2,60.6,89,71,43,30.26,30.19,3,1,9,0.00
2013-7-16,92.6,82.2,69.7,75.9,71.3,64.6,93,72,40,30.24,30.16,3,1,11,0.00
2013-7-17,90.3,82.0,76.6,77.9,74.7,72.2,89,79,57,30.20,30.05,6,3,17,0.00
2013-7-18,90.0,82.3,77.2,76.8,74.3,71.8,91,78,62,30.07,29.91,7,3,16,0.00
2013-7-19,88.3,82.1,69.3,75.4,71.7,65.2,92,71,54,29.91,29.68,9,5,27,1.67
2013-7-20,82.1,73.4,66.2,70.9,67.4,61.9,93,82,55,29.86,29.67,7,2,20,0.46
2013-7-21,80.7,72.6,65.0,64.4,61.4,58.9,84,69,52,29.96,29.85,3,1,11,0.00
2013-7-22,80.3,71.0,59.7,68.5,62.4,56.5,90,75,59,29.96,29.73,4,1,11,0.00
2013-7-23,80.9,72.5,63.1,70.1,65.9,57.5,93,80,66,29.73,29.59,6,2,19,0.33
2013-7-24,68.6,62.7,54.3,57.0,51.4,48.9,83,67,51,30.01,29.70,7,2,18,0.00
2013-7-25,75.6,64.6,50.2,56.6,51.9,46.9,91,66,43,30.10,30.01,5,1,16,0.00
2013-7-26,82.3,67.5,51.4,59.6,54.2,47.5,89,65,40,30.10,29.96,3,1,10,0.00
2013-7-27,79.7,70.0,61.1,65.2,60.7,55.4,89,73,54,29.96,29.76,5,1,16,0.14
2013-7-28,73.5,68.4,63.9,63.8,58.0,52.8,89,71,54,29.94,29.75,5,2,15,0.01
2013-7-29,70.9,64.7,59.7,59.8,56.8,53.7,90,76,63,30.12,29.93,6,2,17,0.16
2013-7-30,76.9,66.7,56.2,62.0,57.4,52.7,90,73,56,30.18,30.11,5,1,12,0.00
2013-7-31,81.9,69.5,55.7,63.5,57.0,52.6,91,67,39,30.13,29.89,3,1,10,0.00
2013-8-1,75.2,69.6,65.7,67.3,62.7,59.8,92,79,69,29.89,29.74,5,2,18,0.59
2013-8-2,77.7,68.0,56.0,66.5,60.0,53.4,94,77,54,29.86,29.79,8,3,21,0.53
2013-8-3,75.6,68.6,59.1,62.4,58.6,53.4,92,71,49,29.92,29.80,6,2,16,0.00
2013-8-4,73.3,65.1,55.5,58.1,53.5,48.1,86,67,48,30.06,29.92,5,2,18,0.00
2013-8-5,75.7,63.0,48.6,56.0,50.8,45.3,92,67,43,30.10,29.99,3,1,12,0.00
2013-8-6,83.2,69.1,55.8,59.8,55.8,50.9,88,65,41,30.02,29.92,3,1,10,0.00
2013-8-7,84.2,75.1,66.7,69.0,63.9,58.6,84,69,54,29.94,29.80,5,2,16,0.00
2013-8-8,85.9,75.2,65.7,72.3,68.1,63.0,93,79,61,29.92,29.84,4,1,19,0.75
2013-8-9,78.7,70.8,64.3,68.6,63.9,58.3,92,80,61,29.91,29.82,4,2,12,0.37
2013-8-10,75.0,68.4,59.6,64.4,56.5,46.4,88,67,41,30.06,29.91,5,2,13,0.00
2013-8-11,78.4,66.6,52.2,58.9,54.7,49.7,93,68,45,30.11,30.01,4,1,12,0.00
2013-8-12,77.7,70.1,60.8,64.3,59.7,55.1,85,70,53,30.02,29.82,5,2,16,0.00
2013-8-13,71.0,66.0,57.6,65.6,57.6,47.2,93,75,54,29.87,29.72,5,2,17,0.38
2013-8-14,71.2,61.4,53.5,52.4,48.8,44.6,85,65,40,30.08,29.86,6,2,19,0.00
2013-8-15,74.8,63.9,50.7,57.2,51.0,46.0,86,64,45,30.12,30.05,7,2,19,0.00
2013-8-16,78.5,65.4,52.0,60.4,54.0,48.4,92,69,45,30.18,30.09,3,1,11,0.00
2013-8-17,83.7,68.9,53.6,58.9,54.0,50.5,91,63,36,30.26,30.18,3,1,9,0.00
2013-8-18,83.6,70.7,56.3,62.5,57.1,51.6,88,65,42,30.21,30.07,3,0,10,0.00
2013-8-19,81.8,70.5,58.2,66.5,60.9,55.6,93,73,46,30.09,30.01,4,1,14,0.00
2013-8-20,82.4,71.6,58.5,66.9,62.4,55.3,90,74,54,30.11,30.03,5,2,15,0.00
2013-8-21,84.8,72.8,59.6,66.6,62.1,56.5,91,71,50,30.13,29.99,5,1,14,0.00
2013-8-22,79.0,72.0,65.2,70.5,65.4,55.5,91,80,64,30.00,29.89,6,2,22,0.76
2013-8-23,77.6,66.7,54.7,60.8,55.0,51.3,93,68,45,30.17,29.97,4,1,14,0.00
2013-8-24,78.7,65.8,51.2,57.2,52.3,48.2,91,65,38,30.33,30.18,3,1,13,0.00
2013-8-25,82.3,69.5,52.6,62.2,55.5,49.1,91,64,39,30.31,30.11,5,2,14,0.00
2013-8-26,78.1,72.7,70.4,68.9,66.4,60.3,92,81,65,30.14,29.91,7,4,20,0.91
2013-8-27,84.2,74.7,69.5,73.6,70.0,67.1,93,86,66,29.91,29.83,4,2,14,0.08
2013-8-28,84.1,75.4,69.4,72.8,69.7,66.0,93,83,63,29.92,29.80,4,1,14,0.34
2013-8-29,86.9,75.2,64.2,70.7,66.5,61.8,94,76,54,30.01,29.92,2,1,9,0.00
2013-8-30,82.0,73.5,62.8,70.3,66.2,60.4,94,79,62,29.97,29.70,4,1,14,0.01
2013-8-31,83.0,75.6,70.7,70.9,68.8,66.4,89,80,64,29.80,29.67,7,2,19,0.12
2013-9-1,85.2,74.7,66.6,71.6,67.8,64.0,92,80,58,29.79,29.71,3,1,10,0.07
2013-9-2,79.9,71.9,63.8,71.6,65.5,54.6,92,81,64,29.77,29.65,5,2,18,0.00
2013-9-3,68.7,64.0,60.1,58.9,56.1,52.9,81,75,70,29.94,29.75,4,2,12,0.00
2013-9-4,74.7,68.2,58.3,64.8,58.1,51.1,87,71,49,29.98,29.93,8,3,22,0.04
2013-9-5,66.2,59.6,50.0,62.0,49.0,41.4,93,70,42,30.22,29.95,5,1,13,0.00
2013-9-6,70.4,57.7,41.9,50.2,45.2,38.6,92,66,35,30.28,30.08,4,1,11,0.00
2013-9-7,67.6,61.4,55.5,62.0,54.4,48.4,90,78,60,30.08,29.86,5,1,14,0.35
2013-9-8,68.1,63.4,50.0,65.1,53.2,45.0,92,71,47,30.09,29.84,5,2,18,0.01
2013-9-9,74.8,62.0,47.7,63.8,52.5,43.3,88,72,54,30.12,29.93,4,1,13,0.00
2013-9-10,84.8,78.7,69.9,72.7,69.4,63.9,86,74,65,29.97,29.87,8,4,22,0.04
2013-9-11,87.3,81.2,70.3,73.1,71.1,65.2,84,72,59,29.99,29.87,7,3,21,0.29
2013-9-12,74.2,69.3,62.3,68.4,64.7,54.7,91,85,74,29.91,29.70,5,2,18,0.17
2013-9-13,62.2,54.9,50.3,55.6,49.3,44.1,88,81,71,30.03,29.75,5,2,13,0.03
2013-9-14,64.6,55.3,48.3,48.2,43.7,40.0,80,66,41,30.12,30.02,4,1,14,0.00
2013-9-15,68.1,57.6,44.5,53.5,47.9,40.6,88,71,56,30.14,30.03,5,2,18,0.17
2013-9-16,56.0,51.0,39.5,53.7,47.3,36.5,93,87,74,30.37,30.05,4,1,12,0.04
2013-9-17,67.4,51.4,35.6,46.8,41.4,33.0,93,72,41,30.48,30.26,4,1,13,0.01
2013-9-18,75.5,58.1,40.9,53.0,45.7,37.9,90,67,40,30.27,30.08,3,1,8,0.00
2013-9-19,78.0,62.6,48.4,60.8,54.0,45.6,91,75,53,30.11,29.98,4,1,11,0.00
2013-9-20,83.6,69.9,54.8,68.2,61.3,51.9,93,76,56,29.99,29.70,5,2,15,0.00
2013-9-21,74.7,63.4,54.3,66.7,60.0,49.6,93,89,72,29.74,29.59,5,1,21,3.38
2013-9-22,57.7,53.4,48.8,49.4,44.8,40.8,88,73,60,30.03,29.74,4,2,15,0.00
2013-9-23,61.4,53.0,43.7,44.0,42.1,39.5,88,68,47,30.15,30.03,4,1,12,0.00
2013-9-24,68.4,51.7,37.8,51.2,43.0,35.1,93,74,49,30.16,30.01,2,0,8,0.00
2013-9-25,72.2,54.8,40.1,53.2,45.0,37.4,92,72,44,30.01,29.92,3,0,9,0.00
2013-9-26,70.9,56.7,42.4,55.1,47.8,39.7,92,74,50,30.13,29.98,3,1,11,0.00
2013-9-27,70.4,58.8,46.2,56.6,51.3,43.4,93,77,58,30.24,30.13,3,1,11,0.00
2013-9-28,77.4,62.6,46.9,56.7,51.9,44.1,93,70,46,30.26,30.13,3,1,11,0.00
2013-9-29,77.8,63.0,47.8,57.9,52.4,44.5,92,70,48,30.13,29.95,4,1,11,0.00
2013-9-30,73.9,65.4,58.5,61.8,57.9,53.2,88,77,62,29.98,29.92,4,1,15,0.00
2013-10-1,71.1,66.0,59.2,62.4,60.4,56.1,91,82,72,29.99,29.89,5,2,15,0.03
2013-10-2,74.1,67.4,55.6,63.1,61.2,52.4,90,81,67,30.07,29.90,5,2,13,0.00
2013-10-3,72.0,60.6,45.2,56.4,48.7,42.7,93,68,38,30.11,29.98,2,0,8,0.03
2013-10-4,71.3,67.0,61.2,68.5,64.0,56.9,93,90,83,30.03,29.96,4,1,12,1.01
2013-10-5,66.7,62.1,59.8,62.8,59.3,56.8,94,90,86,30.06,29.97,5,1,13,0.54
2013-10-6,82.5,70.1,59.7,71.0,64.5,56.9,94,83,63,29.96,29.64,4,1,13,0.20
2013-10-7,76.2,59.6,48.4,64.1,53.0,44.3,91,79,63,30.05,29.62,9,4,27,1.20
2013-10-8,66.3,53.6,41.5,50.6,45.0,39.1,93,74,49,30.33,30.05,2,0,8,0.00
2013-10-9,70.8,55.3,42.6,49.0,44.4,38.7,89,70,40,30.38,30.25,2,0,8,0.00
2013-10-10,70.9,55.4,40.7,48.2,42.2,37.2,91,64,35,30.26,30.12,3,1,11,0.00
2013-10-11,73.0,57.2,44.9,54.7,46.7,41.4,91,71,38,30.15,30.08,4,1,14,0.00
2013-10-12,78.3,59.9,42.4,55.1,44.9,39.7,92,63,29,30.17,30.08,3,1,13,0.00
2013-10-13,70.0,62.8,54.5,60.2,53.9,41.6,92,73,50,30.24,30.13,4,1,11,0.32
2013-10-14,66.9,56.7,46.1,59.8,49.4,42.4,92,78,51,30.33,30.23,4,1,12,0.14
2013-10-15,71.4,57.4,45.2,57.7,50.6,42.0,91,79,57,30.27,29.91,3,1,13,0.00
2013-10-16,70.1,63.4,55.7,59.5,55.9,48.0,91,77,62,29.91,29.72,7,3,17,0.68
2013-10-17,61.8,56.0,52.0,51.6,49.1,46.1,91,78,62,29.86,29.67,4,1,10,0.66
2013-10-18,60.0,54.4,47.5,48.2,44.1,39.1,87,69,47,29.89,29.71,7,4,21,0.01
2013-10-19,59.1,52.7,44.2,49.4,44.6,39.4,89,75,59,29.87,29.63,5,2,14,0.50
2013-10-20,53.4,47.8,43.1,45.6,41.0,36.2,89,77,66,29.96,29.77,6,2,16,0.04
2013-10-21,66.3,55.3,45.4,49.5,42.3,39.0,88,64,37,29.96,29.78,8,3,20,0.27
2013-10-22,50.5,45.7,41.3,47.7,35.2,29.0,91,68,53,29.85,29.74,9,3,25,0.90
2013-10-23,46.1,42.0,38.0,40.0,35.7,30.3,89,79,63,29.83,29.71,7,1,22,0.07
2013-10-24,48.0,40.7,34.9,35.3,32.8,29.8,85,74,54,30.03,29.80,7,3,17,0.00
2013-10-25,50.8,42.9,37.1,38.9,35.4,31.1,90,75,58,30.19,30.03,5,2,14,0.01
2013-10-26,46.1,43.1,38.3,39.8,34.6,29.5,88,73,57,30.11,29.77,10,5,29,0.88
2013-10-27,48.9,43.2,38.3,38.4,35.1,31.6,88,74,55,30.05,29.83,5,2,14,0.00
2013-10-28,48.6,43.6,30.1,39.3,31.6,22.5,77,63,45,30.39,30.03,4,2,14,0.00
2013-10-29,49.9,40.0,28.2,33.0,28.7,22.9,86,65,43,30.46,30.30,3,0,9,0.00
2013-10-30,61.7,48.4,38.6,41.3,38.1,33.1,88,69,44,30.29,30.08,2,0,8,0.01
2013-10-31,67.3,57.4,43.7,59.2,52.3,37.8,93,83,69,30.07,29.33,8,3,23,1.66
2013-11-1,65.1,60.2,47.5,58.3,53.4,43.3,90,79,75,29.65,29.13,12,7,34,0.32
2013-11-2,50.1,45.1,38.0,46.7,41.4,34.7,91,87,81,30.02,29.58,4,1,14,0.25
2013-11-3,40.2,34.2,24.3,34.8,25.4,20.4,88,71,52,30.54,30.02,3,1,10,0.00
2013-11-4,43.3,33.9,22.8,25.4,22.5,19.5,89,65,42,30.65,30.44,5,1,12,0.00
2013-11-5,60.6,46.5,30.3,38.8,31.2,23.3,76,56,41,30.46,30.31,4,1,13,0.00
2013-11-6,67.3,57.4,49.0,55.2,44.2,30.9,91,62,48,30.31,29.79,8,4,19,0.61
2013-11-7,55.8,44.3,39.3,52.9,36.2,29.1,91,73,59,30.01,29.78,7,3,17,0.21
2013-11-8,42.7,39.2,35.0,32.6,30.1,28.0,84,70,57,30.24,29.97,5,2,15,0.01
2013-11-9,51.9,44.6,36.3,45.3,32.6,26.9,86,64,45,30.23,29.78,7,3,18,0.13
2013-11-10,50.9,44.7,38.7,43.2,34.2,30.1,76,67,57,30.19,29.78,9,5,23,0.01
2013-11-11,46.1,38.9,30.5,39.7,32.5,24.3,89,78,62,30.19,29.93,8,3,22,0.58
2013-11-12,34.4,30.5,26.4,25.0,21.0,16.3,79,68,55,30.42,30.14,5,2,15,0.03
2013-11-13,40.0,33.4,25.8,30.8,23.8,17.7,81,68,58,30.44,30.11,10,5,31,0.00
2013-11-14,44.8,42.7,38.7,31.9,28.5,24.2,70,58,52,30.12,30.01,11,9,29,0.00
2013-11-15,44.8,44.8,44.8,28.2,28.2,28.2,52,52,52,30.11,30.05,9,9,23,0.00
2013-11-16,54.6,47.0,44.8,43.9,31.9,28.2,67,56,52,30.23,29.98,9,7,23,0.00
2013-11-17,64.6,59.2,52.7,56.5,51.5,44.0,87,76,67,29.98,29.31,12,6,29,0.51
2013-11-18,55.2,46.0,37.0,46.7,35.9,27.5,78,68,57,29.95,29.37,13,9,34,0.01
2013-11-19,39.0,34.7,23.6,28.7,24.3,19.1,83,66,54,30.47,29.95,7,3,18,0.00
2013-11-20,43.9,31.7,20.7,25.8,21.2,16.6,88,67,43,30.57,30.41,6,2,15,0.00
2013-11-21,46.5,39.3,29.8,37.8,27.8,15.3,87,64,47,30.42,30.23,5,1,13,0.05
2013-11-22,48.7,43.3,32.6,46.5,39.9,26.2,92,88,73,30.23,30.00,6,2,17,0.43
2013-11-23,35.1,29.0,20.7,26.3,19.6,9.4,80,68,49,30.25,30.05,10,5,26,0.00
2013-11-24,25.5,21.0,16.5,14.7,11.9,8.5,82,68,51,30.46,30.25,7,3,17,0.00
2013-11-25,36.8,29.2,19.9,26.8,16.0,10.6,83,59,37,30.42,30.11,9,4,26,0.00
2013-11-26,36.7,34.8,32.8,31.3,28.8,25.3,90,79,70,30.14,29.82,7,2,18,0.01
2013-11-27,33.3,30.9,24.3,31.0,26.2,17.6,91,83,67,29.96,29.68,5,1,16,0.06
2013-11-28,28.9,24.5,20.1,22.4,18.5,15.2,87,78,57,30.43,29.96,4,1,10,0.00
2013-11-29,30.8,24.5,17.2,22.4,17.3,11.2,87,74,58,30.74,30.42,2,0,6,0.01
2013-11-30,37.1,27.3,15.0,25.3,18.1,9.7,81,68,57,30.72,30.19,5,2,12,0.06
2013-12-1,41.8,36.8,31.2,32.7,29.2,25.2,81,74,64,30.19,29.95,4,1,11,0.45
2013-12-2,39.3,36.5,27.2,34.4,31.6,23.8,88,82,77,29.94,29.87,2,0,7,0.09
2013-12-3,41.5,32.0,22.1,30.1,26.0,19.1,91,79,59,30.00,29.92,3,1,11,0.00
2013-12-4,53.5,43.5,35.1,42.3,37.1,29.2,90,78,64,30.00,29.82,3,1,9,0.03
2013-12-5,61.5,51.7,40.5,52.9,44.1,31.9,84,76,68,30.02,29.70,9,5,23,0.01
2013-12-6,40.0,34.1,30.6,32.9,26.4,21.6,89,73,63,30.27,30.02,5,2,12,0.10
2013-12-7,30.6,27.2,21.9,22.8,17.0,11.6,76,65,52,30.59,30.26,5,3,14,0.00
2013-12-8,29.4,25.1,17.5,22.5,15.9,10.5,83,68,54,30.60,30.17,5,1,14,0.00
2013-12-9,39.1,34.3,28.5,34.8,28.8,21.6,90,80,65,30.17,29.86,11,6,29,0.13
2013-12-10,33.6,25.3,22.0,24.5,15.2,8.9,85,65,52,30.09,29.91,10,5,22,0.00
2013-12-11,27.2,22.7,16.7,17.3,12.6,7.4,73,65,56,30.32,30.09,9,5,22,0.00
2013-12-12,20.4,17.4,13.0,16.0,10.1,3.2,83,73,59,30.35,30.18,9,4,23,0.00
2013-12-13,20.3,19.5,15.5,16.0,14.9,9.3,88,82,76,30.41,30.18,3,2,9,0.00
2013-12-14,18.0,15.9,13.9,14.3,10.9,6.5,88,80,68,30.43,29.75,6,4,19,0.00
2013-12-15,26.3,22.0,18.0,22.4,17.6,11.4,89,83,71,29.90,29.65,9,4,22,0.00
2013-12-16,22.2,15.7,7.8,14.1,9.4,2.9,86,76,69,30.19,29.91,7,2,16,0.00
2013-12-17,28.5,21.8,7.8,25.1,17.3,3.0,89,83,78,30.16,29.92,8,2,16,0.00
2013-12-18,32.2,28.6,25.6,25.3,22.6,20.1,88,78,70,30.07,29.93,17,4,17,0.03
2013-12-19,41.1,35.3,27.7,34.2,27.8,18.6,89,74,64,30.03,29.89,8,3,22,0.44
2013-12-20,43.4,40.2,36.1,41.2,37.7,33.2,92,91,89,29.99,29.76,4,1,11,1.05
2013-12-21,52.0,42.2,33.1,50.0,40.1,30.8,93,92,90,29.85,29.70,7,2,19,1.32
2013-12-22,42.0,36.7,32.6,39.6,33.7,30.0,91,89,84,29.96,29.58,7,2,18,1.56
2013-12-23,39.8,34.8,26.0,36.3,28.7,18.5,88,79,70,30.27,29.95,7,4,18,0.00
2013-12-24,27.2,21.6,11.8,21.9,15.8,5.7,87,78,70,30.52,30.20,5,1,13,0.00
2013-12-25,27.3,16.1,3.1,18.1,9.0,-1.4,84,74,61,30.55,30.21,4,1,11,0.00
2013-12-26,32.6,28.2,21.7,28.0,22.1,15.0,90,78,68,30.29,30.06,7,3,15,0.00
2013-12-27,35.5,29.7,21.7,30.0,24.9,15.4,89,82,76,30.29,30.08,6,3,17,0.00
2013-12-28,43.0,38.9,35.0,34.7,32.2,29.3,85,77,65,30.11,29.93,9,5,24,0.12
2013-12-29,46.4,41.5,28.8,37.6,31.4,21.9,84,68,49,29.93,29.62,6,3,17,0.00
2013-12-30,28.5,21.0,18.3,21.3,12.5,8.5,82,69,57,30.22,29.79,5,2,16,0.00
2013-12-31,23.3,19.2,14.7,19.8,11.6,5.4,87,72,58,30.26,29.97,10,4,23,0.00
2014-1-1,22.9,17.7,13.9,12.6,9.3,4.6,83,70,54,30.42,30.25,5,2,16,0.00
2014-1-2,15.5,11.4,6.1,11.0,6.9,1.3,83,82,80,30.30,30.01,8,5,22,0.00